sensor_id;sensor_type;location;lat;lon;timestamp;P1;durP1;ratioP1;P2;durP2;ratioP2
36475;SDS011;56615;42.682;23.364;2023-05-16T00:01:55;20.73;;;14.77;;
36475;SDS011;56615;42.682;23.364;2023-05-16T00:04:22;19.77;;;14.80;;
36475;SDS011;56615;42.682;23.364;2023-05-16T00:06:52;21.85;;;14.95;;
36475;SDS011;56615;42.682;23.364;2023-05-16T00:09:21;18.75;;;15.30;;
36475;SDS011;56615;42.682;23.364;2023-05-16T00:11:54;21.30;;;15.88;;
36475;SDS011;56615;42.682;23.364;2023-05-16T00:14:34;21.92;;;15.68;;
36475;SDS011;56615;42.682;23.364;2023-05-16T00:17:12;21.80;;;15.45;;
36475;SDS011;56615;42.682;23.364;2023-05-16T00:19:39;21.17;;;15.82;;
36475;SDS011;56615;42.682;23.364;2023-05-16T00:22:06;22.50;;;15.73;;
36475;SDS011;56615;42.682;23.364;2023-05-16T00:24:35;19.38;;;15.10;;
36475;SDS011;56615;42.682;23.364;2023-05-16T00:27:05;22.23;;;15.50;;
36475;SDS011;56615;42.682;23.364;2023-05-16T00:29:31;20.05;;;15.27;;
36475;SDS011;56615;42.682;23.364;2023-05-16T00:32:02;18.88;;;14.88;;
36475;SDS011;56615;42.682;23.364;2023-05-16T00:34:35;21.23;;;15.60;;
36475;SDS011;56615;42.682;23.364;2023-05-16T00:37:05;23.50;;;15.13;;
36475;SDS011;56615;42.682;23.364;2023-05-16T00:39:34;19.30;;;14.35;;
36475;SDS011;56615;42.682;23.364;2023-05-16T00:42:02;21.40;;;15.07;;
36475;SDS011;56615;42.682;23.364;2023-05-16T00:44:30;23.00;;;16.23;;
36475;SDS011;56615;42.682;23.364;2023-05-16T00:46:58;21.33;;;15.52;;
36475;SDS011;56615;42.682;23.364;2023-05-16T00:49:37;22.08;;;15.80;;
36475;SDS011;56615;42.682;23.364;2023-05-16T00:52:03;24.23;;;16.90;;
36475;SDS011;56615;42.682;23.364;2023-05-16T00:54:33;20.85;;;15.40;;
36475;SDS011;56615;42.682;23.364;2023-05-16T00:57:02;23.67;;;16.00;;
36475;SDS011;56615;42.682;23.364;2023-05-16T00:59:31;20.30;;;15.20;;
36475;SDS011;56615;42.682;23.364;2023-05-16T01:01:59;21.83;;;15.23;;
36475;SDS011;56615;42.682;23.364;2023-05-16T01:04:31;20.85;;;14.57;;
36475;SDS011;56615;42.682;23.364;2023-05-16T01:06:59;22.20;;;15.30;;
36475;SDS011;56615;42.682;23.364;2023-05-16T01:09:27;19.27;;;15.05;;
36475;SDS011;56615;42.682;23.364;2023-05-16T01:12:15;20.08;;;14.93;;
36475;SDS011;56615;42.682;23.364;2023-05-16T01:15:07;20.27;;;14.57;;
36475;SDS011;56615;42.682;23.364;2023-05-16T01:18:05;20.15;;;14.50;;
36475;SDS011;56615;42.682;23.364;2023-05-16T01:21:01;21.70;;;14.75;;
36475;SDS011;56615;42.682;23.364;2023-05-16T01:23:39;20.70;;;14.32;;
36475;SDS011;56615;42.682;23.364;2023-05-16T01:26:10;22.40;;;14.57;;
36475;SDS011;56615;42.682;23.364;2023-05-16T01:28:53;19.98;;;13.85;;
36475;SDS011;56615;42.682;23.364;2023-05-16T01:31:29;22.92;;;13.35;;
36475;SDS011;56615;42.682;23.364;2023-05-16T01:33:56;18.65;;;13.48;;
36475;SDS011;56615;42.682;23.364;2023-05-16T01:36:27;17.58;;;13.07;;
36475;SDS011;56615;42.682;23.364;2023-05-16T01:42:02;18.60;;;13.60;;
36475;SDS011;56615;42.682;23.364;2023-05-16T01:44:42;17.83;;;13.85;;
36475;SDS011;56615;42.682;23.364;2023-05-16T01:47:31;17.98;;;13.05;;
36475;SDS011;56615;42.682;23.364;2023-05-16T01:58:13;18.80;;;13.57;;
36475;SDS011;56615;42.682;23.364;2023-05-16T02:00:44;20.27;;;13.25;;
36475;SDS011;56615;42.682;23.364;2023-05-16T02:03:10;21.38;;;14.60;;
36475;SDS011;56615;42.682;23.364;2023-05-16T02:05:36;19.27;;;13.20;;
36475;SDS011;56615;42.682;23.364;2023-05-16T02:08:01;21.33;;;14.13;;
36475;SDS011;56615;42.682;23.364;2023-05-16T02:13:02;20.30;;;12.57;;
36475;SDS011;56615;42.682;23.364;2023-05-16T02:15:30;19.30;;;12.82;;
36475;SDS011;56615;42.682;23.364;2023-05-16T02:17:59;18.05;;;13.00;;
36475;SDS011;56615;42.682;23.364;2023-05-16T02:20:31;20.93;;;12.70;;
36475;SDS011;56615;42.682;23.364;2023-05-16T02:22:58;19.40;;;12.20;;
36475;SDS011;56615;42.682;23.364;2023-05-16T02:25:28;17.80;;;12.50;;
36475;SDS011;56615;42.682;23.364;2023-05-16T02:27:54;19.23;;;12.70;;
36475;SDS011;56615;42.682;23.364;2023-05-16T02:30:20;21.65;;;11.88;;
36475;SDS011;56615;42.682;23.364;2023-05-16T02:32:45;19.40;;;12.68;;
36475;SDS011;56615;42.682;23.364;2023-05-16T02:35:15;15.57;;;11.27;;
36475;SDS011;56615;42.682;23.364;2023-05-16T02:37:43;15.80;;;10.93;;
36475;SDS011;56615;42.682;23.364;2023-05-16T02:40:08;16.52;;;10.88;;
36475;SDS011;56615;42.682;23.364;2023-05-16T02:42:36;18.02;;;11.15;;
36475;SDS011;56615;42.682;23.364;2023-05-16T02:45:04;14.98;;;10.63;;
36475;SDS011;56615;42.682;23.364;2023-05-16T02:47:31;15.23;;;11.00;;
36475;SDS011;56615;42.682;23.364;2023-05-16T02:50:00;15.63;;;9.98;;
36475;SDS011;56615;42.682;23.364;2023-05-16T02:52:27;17.42;;;11.05;;
36475;SDS011;56615;42.682;23.364;2023-05-16T02:54:54;16.27;;;10.68;;
36475;SDS011;56615;42.682;23.364;2023-05-16T02:57:22;15.15;;;10.82;;
36475;SDS011;56615;42.682;23.364;2023-05-16T02:59:55;16.25;;;10.13;;
36475;SDS011;56615;42.682;23.364;2023-05-16T03:02:45;16.50;;;10.50;;
36475;SDS011;56615;42.682;23.364;2023-05-16T03:05:18;14.70;;;11.00;;
36475;SDS011;56615;42.682;23.364;2023-05-16T03:07:47;14.52;;;10.10;;
36475;SDS011;56615;42.682;23.364;2023-05-16T03:10:12;18.27;;;10.73;;
36475;SDS011;56615;42.682;23.364;2023-05-16T03:12:37;14.75;;;10.60;;
36475;SDS011;56615;42.682;23.364;2023-05-16T03:15:09;14.73;;;10.50;;
36475;SDS011;56615;42.682;23.364;2023-05-16T03:17:35;15.82;;;10.75;;
36475;SDS011;56615;42.682;23.364;2023-05-16T03:20:00;20.08;;;10.85;;
36475;SDS011;56615;42.682;23.364;2023-05-16T03:22:26;17.30;;;10.65;;
36475;SDS011;56615;42.682;23.364;2023-05-16T03:24:51;16.65;;;10.77;;
36475;SDS011;56615;42.682;23.364;2023-05-16T03:27:16;14.77;;;10.93;;
36475;SDS011;56615;42.682;23.364;2023-05-16T03:29:42;19.00;;;10.88;;
36475;SDS011;56615;42.682;23.364;2023-05-16T03:35:30;20.60;;;10.85;;
36475;SDS011;56615;42.682;23.364;2023-05-16T03:37:55;19.17;;;11.27;;
36475;SDS011;56615;42.682;23.364;2023-05-16T03:40:21;17.60;;;11.85;;
36475;SDS011;56615;42.682;23.364;2023-05-16T03:42:46;17.98;;;11.68;;
36475;SDS011;56615;42.682;23.364;2023-05-16T03:45:12;17.20;;;12.18;;
36475;SDS011;56615;42.682;23.364;2023-05-16T03:47:37;20.15;;;12.15;;
36475;SDS011;56615;42.682;23.364;2023-05-16T03:50:03;18.48;;;12.10;;
36475;SDS011;56615;42.682;23.364;2023-05-16T03:52:29;19.00;;;12.88;;
36475;SDS011;56615;42.682;23.364;2023-05-16T03:58:01;17.70;;;11.50;;
36475;SDS011;56615;42.682;23.364;2023-05-16T04:00:26;19.60;;;12.70;;
36475;SDS011;56615;42.682;23.364;2023-05-16T04:02:52;19.63;;;12.65;;
36475;SDS011;56615;42.682;23.364;2023-05-16T04:05:17;18.35;;;13.00;;
36475;SDS011;56615;42.682;23.364;2023-05-16T04:07:43;19.73;;;13.10;;
36475;SDS011;56615;42.682;23.364;2023-05-16T04:10:08;19.08;;;13.27;;
36475;SDS011;56615;42.682;23.364;2023-05-16T04:12:34;19.00;;;12.73;;
36475;SDS011;56615;42.682;23.364;2023-05-16T04:15:00;15.95;;;11.45;;
36475;SDS011;56615;42.682;23.364;2023-05-16T04:17:27;18.50;;;12.30;;
36475;SDS011;56615;42.682;23.364;2023-05-16T04:19:52;17.00;;;11.63;;
36475;SDS011;56615;42.682;23.364;2023-05-16T04:22:38;18.88;;;12.15;;
36475;SDS011;56615;42.682;23.364;2023-05-16T04:25:03;19.77;;;12.95;;
36475;SDS011;56615;42.682;23.364;2023-05-16T04:27:29;18.83;;;13.00;;
36475;SDS011;56615;42.682;23.364;2023-05-16T04:29:55;20.23;;;12.07;;
36475;SDS011;56615;42.682;23.364;2023-05-16T04:32:22;21.42;;;13.20;;
36475;SDS011;56615;42.682;23.364;2023-05-16T04:34:48;16.85;;;12.52;;
36475;SDS011;56615;42.682;23.364;2023-05-16T04:37:14;19.63;;;12.85;;
36475;SDS011;56615;42.682;23.364;2023-05-16T04:39:39;19.83;;;14.15;;
36475;SDS011;56615;42.682;23.364;2023-05-16T04:42:05;19.55;;;12.88;;
36475;SDS011;56615;42.682;23.364;2023-05-16T04:44:32;17.88;;;13.23;;
36475;SDS011;56615;42.682;23.364;2023-05-16T04:46:58;22.58;;;13.27;;
36475;SDS011;56615;42.682;23.364;2023-05-16T04:49:23;19.65;;;12.60;;
36475;SDS011;56615;42.682;23.364;2023-05-16T04:51:49;19.92;;;13.10;;
36475;SDS011;56615;42.682;23.364;2023-05-16T04:54:14;17.73;;;12.70;;
36475;SDS011;56615;42.682;23.364;2023-05-16T04:56:40;20.60;;;13.25;;
36475;SDS011;56615;42.682;23.364;2023-05-16T04:59:05;19.67;;;12.45;;
36475;SDS011;56615;42.682;23.364;2023-05-16T05:01:31;16.15;;;12.10;;
36475;SDS011;56615;42.682;23.364;2023-05-16T05:03:56;19.85;;;12.05;;
36475;SDS011;56615;42.682;23.364;2023-05-16T05:06:22;19.63;;;12.48;;
36475;SDS011;56615;42.682;23.364;2023-05-16T05:08:47;18.42;;;12.50;;
36475;SDS011;56615;42.682;23.364;2023-05-16T05:11:13;17.25;;;12.52;;
36475;SDS011;56615;42.682;23.364;2023-05-16T05:13:38;23.60;;;12.80;;
36475;SDS011;56615;42.682;23.364;2023-05-16T05:16:04;19.33;;;12.30;;
36475;SDS011;56615;42.682;23.364;2023-05-16T05:18:30;21.30;;;12.98;;
36475;SDS011;56615;42.682;23.364;2023-05-16T05:20:55;20.55;;;12.60;;
36475;SDS011;56615;42.682;23.364;2023-05-16T05:23:38;21.98;;;13.48;;
36475;SDS011;56615;42.682;23.364;2023-05-16T05:26:04;20.65;;;13.68;;
36475;SDS011;56615;42.682;23.364;2023-05-16T05:28:29;18.33;;;13.18;;
36475;SDS011;56615;42.682;23.364;2023-05-16T05:30:54;22.98;;;13.30;;
36475;SDS011;56615;42.682;23.364;2023-05-16T05:33:22;20.23;;;13.05;;
36475;SDS011;56615;42.682;23.364;2023-05-16T05:35:50;19.90;;;12.60;;
36475;SDS011;56615;42.682;23.364;2023-05-16T05:38:18;20.15;;;13.05;;
36475;SDS011;56615;42.682;23.364;2023-05-16T05:40:43;16.13;;;12.63;;
36475;SDS011;56615;42.682;23.364;2023-05-16T05:43:09;20.17;;;12.90;;
36475;SDS011;56615;42.682;23.364;2023-05-16T05:45:34;18.20;;;12.65;;
36475;SDS011;56615;42.682;23.364;2023-05-16T05:47:59;19.30;;;12.63;;
36475;SDS011;56615;42.682;23.364;2023-05-16T05:50:25;21.17;;;13.15;;
36475;SDS011;56615;42.682;23.364;2023-05-16T05:52:51;19.70;;;13.00;;
36475;SDS011;56615;42.682;23.364;2023-05-16T05:55:32;20.27;;;12.63;;
36475;SDS011;56615;42.682;23.364;2023-05-16T05:58:11;21.67;;;12.70;;
36475;SDS011;56615;42.682;23.364;2023-05-16T06:01:03;19.70;;;12.60;;
36475;SDS011;56615;42.682;23.364;2023-05-16T06:03:35;18.42;;;11.85;;
36475;SDS011;56615;42.682;23.364;2023-05-16T06:06:05;21.30;;;12.40;;
36475;SDS011;56615;42.682;23.364;2023-05-16T06:08:36;20.70;;;12.38;;
36475;SDS011;56615;42.682;23.364;2023-05-16T06:11:02;22.42;;;12.65;;
36475;SDS011;56615;42.682;23.364;2023-05-16T06:13:29;19.73;;;11.60;;
36475;SDS011;56615;42.682;23.364;2023-05-16T06:15:59;19.30;;;11.38;;
36475;SDS011;56615;42.682;23.364;2023-05-16T06:18:28;18.45;;;10.82;;
36475;SDS011;56615;42.682;23.364;2023-05-16T06:20:54;16.65;;;10.75;;
36475;SDS011;56615;42.682;23.364;2023-05-16T06:23:20;19.38;;;11.00;;
36475;SDS011;56615;42.682;23.364;2023-05-16T06:25:49;17.85;;;11.50;;
36475;SDS011;56615;42.682;23.364;2023-05-16T06:28:23;18.63;;;11.27;;
36475;SDS011;56615;42.682;23.364;2023-05-16T06:30:49;20.17;;;10.85;;
36475;SDS011;56615;42.682;23.364;2023-05-16T06:33:16;18.05;;;10.35;;
36475;SDS011;56615;42.682;23.364;2023-05-16T06:35:42;18.95;;;10.23;;
36475;SDS011;56615;42.682;23.364;2023-05-16T06:38:07;19.52;;;11.32;;
36475;SDS011;56615;42.682;23.364;2023-05-16T06:40:33;18.63;;;12.07;;
36475;SDS011;56615;42.682;23.364;2023-05-16T06:42:58;21.42;;;11.63;;
36475;SDS011;56615;42.682;23.364;2023-05-16T06:45:24;19.58;;;10.90;;
36475;SDS011;56615;42.682;23.364;2023-05-16T06:47:50;17.70;;;10.85;;
36475;SDS011;56615;42.682;23.364;2023-05-16T06:50:15;19.77;;;10.65;;
36475;SDS011;56615;42.682;23.364;2023-05-16T06:52:42;19.77;;;11.23;;
36475;SDS011;56615;42.682;23.364;2023-05-16T06:55:08;18.70;;;10.32;;
36475;SDS011;56615;42.682;23.364;2023-05-16T06:57:33;19.08;;;11.20;;
36475;SDS011;56615;42.682;23.364;2023-05-16T06:59:59;17.65;;;10.18;;
36475;SDS011;56615;42.682;23.364;2023-05-16T07:02:24;15.63;;;10.43;;
36475;SDS011;56615;42.682;23.364;2023-05-16T07:04:50;15.10;;;10.52;;
36475;SDS011;56615;42.682;23.364;2023-05-16T07:07:15;14.30;;;9.90;;
36475;SDS011;56615;42.682;23.364;2023-05-16T07:09:41;15.38;;;9.20;;
36475;SDS011;56615;42.682;23.364;2023-05-16T07:12:07;19.30;;;9.80;;
36475;SDS011;56615;42.682;23.364;2023-05-16T07:14:33;18.90;;;9.93;;
36475;SDS011;56615;42.682;23.364;2023-05-16T07:16:59;15.43;;;9.73;;
36475;SDS011;56615;42.682;23.364;2023-05-16T07:19:24;17.40;;;9.95;;
36475;SDS011;56615;42.682;23.364;2023-05-16T07:21:50;15.38;;;9.38;;
36475;SDS011;56615;42.682;23.364;2023-05-16T07:24:16;15.98;;;9.55;;
36475;SDS011;56615;42.682;23.364;2023-05-16T07:26:41;14.85;;;9.13;;
36475;SDS011;56615;42.682;23.364;2023-05-16T07:29:07;14.00;;;9.70;;
36475;SDS011;56615;42.682;23.364;2023-05-16T07:31:32;16.95;;;9.68;;
36475;SDS011;56615;42.682;23.364;2023-05-16T07:33:59;17.95;;;9.65;;
36475;SDS011;56615;42.682;23.364;2023-05-16T07:36:24;15.13;;;9.32;;
36475;SDS011;56615;42.682;23.364;2023-05-16T07:38:50;17.42;;;10.15;;
36475;SDS011;56615;42.682;23.364;2023-05-16T07:41:15;16.55;;;9.05;;
36475;SDS011;56615;42.682;23.364;2023-05-16T07:43:42;15.15;;;9.48;;
36475;SDS011;56615;42.682;23.364;2023-05-16T07:46:46;14.88;;;9.60;;
36475;SDS011;56615;42.682;23.364;2023-05-16T07:49:13;15.80;;;9.38;;
36475;SDS011;56615;42.682;23.364;2023-05-16T07:51:38;15.75;;;9.15;;
36475;SDS011;56615;42.682;23.364;2023-05-16T07:54:04;16.30;;;9.20;;
36475;SDS011;56615;42.682;23.364;2023-05-16T07:56:31;14.88;;;9.57;;
36475;SDS011;56615;42.682;23.364;2023-05-16T07:58:58;14.85;;;9.27;;
36475;SDS011;56615;42.682;23.364;2023-05-16T08:01:33;16.20;;;8.93;;
36475;SDS011;56615;42.682;23.364;2023-05-16T08:03:58;17.48;;;9.90;;
36475;SDS011;56615;42.682;23.364;2023-05-16T08:06:23;18.50;;;9.30;;
36475;SDS011;56615;42.682;23.364;2023-05-16T08:08:49;15.27;;;10.00;;
36475;SDS011;56615;42.682;23.364;2023-05-16T08:11:14;18.88;;;9.60;;
36475;SDS011;56615;42.682;23.364;2023-05-16T08:13:40;14.25;;;9.20;;
36475;SDS011;56615;42.682;23.364;2023-05-16T08:16:07;16.63;;;9.05;;
36475;SDS011;56615;42.682;23.364;2023-05-16T08:21:41;20.35;;;9.77;;
36475;SDS011;56615;42.682;23.364;2023-05-16T08:24:06;18.48;;;10.02;;
36475;SDS011;56615;42.682;23.364;2023-05-16T08:26:32;16.35;;;10.02;;
36475;SDS011;56615;42.682;23.364;2023-05-16T08:28:57;18.88;;;10.05;;
36475;SDS011;56615;42.682;23.364;2023-05-16T08:31:22;17.15;;;10.43;;
36475;SDS011;56615;42.682;23.364;2023-05-16T08:33:48;17.88;;;9.45;;
36475;SDS011;56615;42.682;23.364;2023-05-16T08:36:13;15.88;;;9.55;;
36475;SDS011;56615;42.682;23.364;2023-05-16T08:38:40;17.63;;;9.57;;
36475;SDS011;56615;42.682;23.364;2023-05-16T08:41:05;17.90;;;9.13;;
36475;SDS011;56615;42.682;23.364;2023-05-16T08:43:33;18.75;;;9.43;;
36475;SDS011;56615;42.682;23.364;2023-05-16T08:45:59;15.98;;;9.75;;
36475;SDS011;56615;42.682;23.364;2023-05-16T08:48:25;16.02;;;9.13;;
36475;SDS011;56615;42.682;23.364;2023-05-16T08:50:52;21.98;;;9.85;;
36475;SDS011;56615;42.682;23.364;2023-05-16T08:53:20;19.77;;;10.20;;
36475;SDS011;56615;42.682;23.364;2023-05-16T08:55:46;19.73;;;9.32;;
36475;SDS011;56615;42.682;23.364;2023-05-16T08:58:12;15.05;;;8.98;;
36475;SDS011;56615;42.682;23.364;2023-05-16T09:00:38;15.57;;;8.20;;
36475;SDS011;56615;42.682;23.364;2023-05-16T09:03:04;15.40;;;8.65;;
36475;SDS011;56615;42.682;23.364;2023-05-16T09:05:30;17.10;;;8.70;;
36475;SDS011;56615;42.682;23.364;2023-05-16T09:07:58;14.68;;;7.88;;
36475;SDS011;56615;42.682;23.364;2023-05-16T09:10:24;14.90;;;8.27;;
36475;SDS011;56615;42.682;23.364;2023-05-16T09:12:49;14.48;;;8.32;;
36475;SDS011;56615;42.682;23.364;2023-05-16T09:15:16;13.60;;;7.93;;
36475;SDS011;56615;42.682;23.364;2023-05-16T09:17:43;13.52;;;7.90;;
36475;SDS011;56615;42.682;23.364;2023-05-16T09:20:14;14.23;;;7.65;;
36475;SDS011;56615;42.682;23.364;2023-05-16T09:22:48;14.48;;;7.50;;
36475;SDS011;56615;42.682;23.364;2023-05-16T09:25:18;13.45;;;7.32;;
36475;SDS011;56615;42.682;23.364;2023-05-16T09:27:48;15.48;;;8.00;;
36475;SDS011;56615;42.682;23.364;2023-05-16T09:30:17;13.38;;;7.93;;
36475;SDS011;56615;42.682;23.364;2023-05-16T09:32:46;14.73;;;7.97;;
36475;SDS011;56615;42.682;23.364;2023-05-16T09:35:17;15.98;;;8.48;;
36475;SDS011;56615;42.682;23.364;2023-05-16T09:37:46;16.02;;;7.93;;
36475;SDS011;56615;42.682;23.364;2023-05-16T09:40:13;13.40;;;7.53;;
36475;SDS011;56615;42.682;23.364;2023-05-16T09:42:38;13.18;;;7.03;;
36475;SDS011;56615;42.682;23.364;2023-05-16T09:45:06;13.52;;;7.57;;
36475;SDS011;56615;42.682;23.364;2023-05-16T09:47:31;15.48;;;7.30;;
36475;SDS011;56615;42.682;23.364;2023-05-16T09:49:58;12.13;;;7.07;;
36475;SDS011;56615;42.682;23.364;2023-05-16T09:52:28;13.48;;;6.85;;
36475;SDS011;56615;42.682;23.364;2023-05-16T09:54:53;14.85;;;7.20;;
36475;SDS011;56615;42.682;23.364;2023-05-16T09:57:23;18.42;;;7.25;;
36475;SDS011;56615;42.682;23.364;2023-05-16T10:00:31;14.40;;;7.28;;
36475;SDS011;56615;42.682;23.364;2023-05-16T10:02:57;14.23;;;6.85;;
36475;SDS011;56615;42.682;23.364;2023-05-16T10:05:27;12.07;;;7.30;;
36475;SDS011;56615;42.682;23.364;2023-05-16T10:07:58;12.32;;;7.40;;
36475;SDS011;56615;42.682;23.364;2023-05-16T10:10:25;10.40;;;7.20;;
36475;SDS011;56615;42.682;23.364;2023-05-16T10:12:53;13.25;;;7.28;;
36475;SDS011;56615;42.682;23.364;2023-05-16T10:15:20;13.07;;;6.95;;
36475;SDS011;56615;42.682;23.364;2023-05-16T10:17:49;14.52;;;7.18;;
36475;SDS011;56615;42.682;23.364;2023-05-16T10:20:19;12.00;;;7.35;;
36475;SDS011;56615;42.682;23.364;2023-05-16T10:22:52;11.38;;;7.22;;
36475;SDS011;56615;42.682;23.364;2023-05-16T10:25:25;13.85;;;7.65;;
36475;SDS011;56615;42.682;23.364;2023-05-16T10:27:53;15.32;;;7.13;;
36475;SDS011;56615;42.682;23.364;2023-05-16T10:30:21;15.50;;;7.95;;
36475;SDS011;56615;42.682;23.364;2023-05-16T10:32:53;14.13;;;6.82;;
36475;SDS011;56615;42.682;23.364;2023-05-16T10:35:20;16.13;;;7.47;;
36475;SDS011;56615;42.682;23.364;2023-05-16T10:37:47;20.30;;;8.10;;
36475;SDS011;56615;42.682;23.364;2023-05-16T10:40:13;15.48;;;7.53;;
36475;SDS011;56615;42.682;23.364;2023-05-16T10:42:43;21.63;;;7.90;;
36475;SDS011;56615;42.682;23.364;2023-05-16T10:45:18;15.98;;;7.28;;
36475;SDS011;56615;42.682;23.364;2023-05-16T10:47:56;13.27;;;7.13;;
36475;SDS011;56615;42.682;23.364;2023-05-16T10:50:44;17.80;;;7.45;;
36475;SDS011;56615;42.682;23.364;2023-05-16T10:53:17;14.80;;;6.88;;
36475;SDS011;56615;42.682;23.364;2023-05-16T11:01:20;13.60;;;6.90;;
36475;SDS011;56615;42.682;23.364;2023-05-16T11:04:44;12.75;;;6.70;;
36475;SDS011;56615;42.682;23.364;2023-05-16T11:07:11;15.93;;;7.15;;
36475;SDS011;56615;42.682;23.364;2023-05-16T11:09:40;15.70;;;7.82;;
36475;SDS011;56615;42.682;23.364;2023-05-16T11:12:08;16.75;;;7.25;;
36475;SDS011;56615;42.682;23.364;2023-05-16T11:14:36;13.75;;;7.07;;
36475;SDS011;56615;42.682;23.364;2023-05-16T11:17:13;10.88;;;7.15;;
36475;SDS011;56615;42.682;23.364;2023-05-16T11:24:58;13.38;;;7.43;;
36475;SDS011;56615;42.682;23.364;2023-05-16T11:30:14;16.92;;;7.05;;
36475;SDS011;56615;42.682;23.364;2023-05-16T11:32:42;18.23;;;8.35;;
36475;SDS011;56615;42.682;23.364;2023-05-16T11:35:10;17.08;;;7.75;;
36475;SDS011;56615;42.682;23.364;2023-05-16T11:37:41;13.80;;;7.50;;
36475;SDS011;56615;42.682;23.364;2023-05-16T11:40:08;16.92;;;7.43;;
36475;SDS011;56615;42.682;23.364;2023-05-16T11:42:42;17.60;;;9.02;;
36475;SDS011;56615;42.682;23.364;2023-05-16T11:47:43;14.75;;;8.45;;
36475;SDS011;56615;42.682;23.364;2023-05-16T11:50:10;15.20;;;7.60;;
36475;SDS011;56615;42.682;23.364;2023-05-16T11:52:36;13.98;;;7.97;;
36475;SDS011;56615;42.682;23.364;2023-05-16T11:55:06;13.93;;;8.05;;
36475;SDS011;56615;42.682;23.364;2023-05-16T11:57:34;17.42;;;7.93;;
36475;SDS011;56615;42.682;23.364;2023-05-16T12:00:01;15.07;;;7.50;;
36475;SDS011;56615;42.682;23.364;2023-05-16T12:02:30;13.75;;;6.95;;
36475;SDS011;56615;42.682;23.364;2023-05-16T12:04:56;18.20;;;7.70;;
36475;SDS011;56615;42.682;23.364;2023-05-16T12:07:26;16.42;;;7.55;;
36475;SDS011;56615;42.682;23.364;2023-05-16T12:09:52;17.58;;;6.88;;
36475;SDS011;56615;42.682;23.364;2023-05-16T12:12:19;14.88;;;7.63;;
36475;SDS011;56615;42.682;23.364;2023-05-16T12:14:46;16.67;;;6.60;;
36475;SDS011;56615;42.682;23.364;2023-05-16T12:17:13;17.38;;;7.32;;
36475;SDS011;56615;42.682;23.364;2023-05-16T12:19:38;12.27;;;6.25;;
36475;SDS011;56615;42.682;23.364;2023-05-16T12:22:14;13.32;;;6.93;;
36475;SDS011;56615;42.682;23.364;2023-05-16T12:24:50;13.88;;;7.03;;
36475;SDS011;56615;42.682;23.364;2023-05-16T12:27:22;13.60;;;6.50;;
36475;SDS011;56615;42.682;23.364;2023-05-16T12:29:48;15.05;;;6.60;;
36475;SDS011;56615;42.682;23.364;2023-05-16T12:32:18;13.82;;;6.60;;
36475;SDS011;56615;42.682;23.364;2023-05-16T12:34:50;14.40;;;6.40;;
36475;SDS011;56615;42.682;23.364;2023-05-16T12:37:17;16.55;;;6.80;;
36475;SDS011;56615;42.682;23.364;2023-05-16T12:39:45;17.30;;;6.68;;
36475;SDS011;56615;42.682;23.364;2023-05-16T12:42:12;16.27;;;6.38;;
36475;SDS011;56615;42.682;23.364;2023-05-16T12:44:38;13.57;;;6.55;;
36475;SDS011;56615;42.682;23.364;2023-05-16T12:47:12;13.10;;;6.57;;
36475;SDS011;56615;42.682;23.364;2023-05-16T12:52:11;15.73;;;7.13;;
36475;SDS011;56615;42.682;23.364;2023-05-16T12:54:44;16.85;;;6.82;;
36475;SDS011;56615;42.682;23.364;2023-05-16T12:57:10;15.77;;;7.35;;
36475;SDS011;56615;42.682;23.364;2023-05-16T12:59:35;16.10;;;7.40;;
36475;SDS011;56615;42.682;23.364;2023-05-16T13:02:01;13.00;;;7.43;;
36475;SDS011;56615;42.682;23.364;2023-05-16T13:04:27;14.70;;;7.93;;
36475;SDS011;56615;42.682;23.364;2023-05-16T13:06:53;16.10;;;8.25;;
36475;SDS011;56615;42.682;23.364;2023-05-16T13:09:18;13.10;;;7.95;;
36475;SDS011;56615;42.682;23.364;2023-05-16T13:11:44;17.50;;;7.85;;
36475;SDS011;56615;42.682;23.364;2023-05-16T13:14:09;15.50;;;7.72;;
36475;SDS011;56615;42.682;23.364;2023-05-16T13:16:35;19.38;;;7.40;;
36475;SDS011;56615;42.682;23.364;2023-05-16T13:19:00;19.75;;;8.77;;
36475;SDS011;56615;42.682;23.364;2023-05-16T13:21:27;16.83;;;8.00;;
36475;SDS011;56615;42.682;23.364;2023-05-16T13:23:55;22.40;;;8.60;;
36475;SDS011;56615;42.682;23.364;2023-05-16T13:26:20;18.33;;;8.05;;
36475;SDS011;56615;42.682;23.364;2023-05-16T13:28:46;17.85;;;7.90;;
36475;SDS011;56615;42.682;23.364;2023-05-16T13:31:15;17.42;;;8.15;;
36475;SDS011;56615;42.682;23.364;2023-05-16T13:33:40;15.70;;;7.78;;
36475;SDS011;56615;42.682;23.364;2023-05-16T13:36:06;16.02;;;6.97;;
36475;SDS011;56615;42.682;23.364;2023-05-16T13:38:32;13.85;;;7.28;;
36475;SDS011;56615;42.682;23.364;2023-05-16T13:40:57;15.98;;;7.22;;
36475;SDS011;56615;42.682;23.364;2023-05-16T13:43:23;18.25;;;7.47;;
36475;SDS011;56615;42.682;23.364;2023-05-16T13:45:49;18.02;;;7.40;;
36475;SDS011;56615;42.682;23.364;2023-05-16T13:48:14;19.65;;;7.70;;
36475;SDS011;56615;42.682;23.364;2023-05-16T13:50:40;15.20;;;7.57;;
36475;SDS011;56615;42.682;23.364;2023-05-16T13:53:06;18.25;;;6.85;;
36475;SDS011;56615;42.682;23.364;2023-05-16T13:55:32;13.80;;;7.55;;
36475;SDS011;56615;42.682;23.364;2023-05-16T13:57:57;15.57;;;7.05;;
36475;SDS011;56615;42.682;23.364;2023-05-16T14:00:25;19.70;;;8.15;;
36475;SDS011;56615;42.682;23.364;2023-05-16T14:02:51;20.05;;;9.02;;
36475;SDS011;56615;42.682;23.364;2023-05-16T14:05:16;16.00;;;7.82;;
36475;SDS011;56615;42.682;23.364;2023-05-16T14:07:42;21.48;;;7.90;;
36475;SDS011;56615;42.682;23.364;2023-05-16T14:10:09;27.20;;;12.00;;
36475;SDS011;56615;42.682;23.364;2023-05-16T14:12:36;18.98;;;9.70;;
36475;SDS011;56615;42.682;23.364;2023-05-16T14:15:02;21.55;;;8.93;;
36475;SDS011;56615;42.682;23.364;2023-05-16T14:17:27;20.23;;;10.63;;
36475;SDS011;56615;42.682;23.364;2023-05-16T14:19:54;23.05;;;12.75;;
36475;SDS011;56615;42.682;23.364;2023-05-16T14:22:21;24.17;;;11.50;;
36475;SDS011;56615;42.682;23.364;2023-05-16T14:24:55;21.08;;;11.48;;
36475;SDS011;56615;42.682;23.364;2023-05-16T14:27:20;26.30;;;15.13;;
36475;SDS011;56615;42.682;23.364;2023-05-16T14:29:50;26.38;;;14.50;;
36475;SDS011;56615;42.682;23.364;2023-05-16T14:32:17;26.67;;;12.07;;
36475;SDS011;56615;42.682;23.364;2023-05-16T14:34:43;35.80;;;19.23;;
36475;SDS011;56615;42.682;23.364;2023-05-16T14:37:09;34.55;;;20.02;;
36475;SDS011;56615;42.682;23.364;2023-05-16T14:39:35;20.67;;;12.10;;
36475;SDS011;56615;42.682;23.364;2023-05-16T14:42:00;33.78;;;19.98;;
36475;SDS011;56615;42.682;23.364;2023-05-16T14:44:25;19.08;;;10.30;;
36475;SDS011;56615;42.682;23.364;2023-05-16T14:46:51;21.67;;;9.93;;
36475;SDS011;56615;42.682;23.364;2023-05-16T14:49:17;19.92;;;9.70;;
36475;SDS011;56615;42.682;23.364;2023-05-16T14:51:42;22.15;;;12.30;;
36475;SDS011;56615;42.682;23.364;2023-05-16T14:54:13;22.55;;;11.25;;
36475;SDS011;56615;42.682;23.364;2023-05-16T14:56:44;24.45;;;14.07;;
36475;SDS011;56615;42.682;23.364;2023-05-16T14:59:10;20.25;;;11.15;;
36475;SDS011;56615;42.682;23.364;2023-05-16T15:01:36;28.52;;;13.40;;
36475;SDS011;56615;42.682;23.364;2023-05-16T15:04:02;25.98;;;15.35;;